Lewisville, Texas
Current Conditions -  °F | °C
As of 9:53 AM on Saturday 20 Dec 2014 (Local Time) from KDFW Reporting Station
Drizzle Drizzle  
Wind Chill: 40°   Ceiling: 700
Heat Index: 44°   Visibility: 4mi
Dew Point: 42°   Wind: 7mph
Humidity: 93%   Direction: 30°NNE
Pressure: 30.26"   Gusts: NA
Location:  33.05°N, 96.99°W
Report Text: KDFW 201553Z 03006KT 4SM -DZ BR BKN007 OVC016 07/06 A3026 RMK AO2 SLP246 P0000 T00670056
Loading
Personal Weather Stations






























Interactive Weather Map New forecast layout! Learn more

10-Day Weather Forecast

Advertisements
Track Severe Weather on mobile